createdAt,value
2023-07-25T00:01:37.471Z,23.01
2023-07-25T00:04:07.869Z,22.93
2023-07-25T00:06:36.849Z,22.93
2023-07-25T00:09:05.634Z,22.92
2023-07-25T00:11:34.842Z,22.91
2023-07-25T00:14:03.607Z,22.87
2023-07-25T00:16:32.688Z,22.78
2023-07-25T00:19:01.831Z,22.77
2023-07-25T00:21:32.476Z,22.75
2023-07-25T00:24:01.863Z,22.76
2023-07-25T00:26:30.732Z,22.81
2023-07-25T00:28:59.618Z,22.82
2023-07-25T00:31:29.004Z,22.78
2023-07-25T00:33:58.061Z,22.74
2023-07-25T00:36:26.739Z,22.72
2023-07-25T00:38:57.005Z,22.84
2023-07-25T00:41:25.930Z,22.80
2023-07-25T00:43:54.685Z,22.86
2023-07-25T00:46:23.688Z,22.85
2023-07-25T00:48:53.492Z,22.88
2023-07-25T00:51:22.465Z,22.92
2023-07-25T00:53:51.382Z,22.96
2023-07-25T00:56:22.154Z,23.02
2023-07-25T00:58:51.109Z,23.13
2023-07-25T01:01:20.519Z,23.25
2023-07-25T01:03:49.296Z,23.29
2023-07-25T01:06:19.428Z,23.18
2023-07-25T01:08:51.693Z,23.18
2023-07-25T01:11:22.680Z,23.18
2023-07-25T01:13:53.122Z,23.24
2023-07-25T01:16:25.576Z,23.17
2023-07-25T01:18:55.752Z,22.99
2023-07-25T01:21:24.934Z,22.81
2023-07-25T01:23:53.770Z,22.76
2023-07-25T01:26:26.041Z,22.50
2023-07-25T01:28:54.909Z,22.22
2023-07-25T01:31:23.695Z,21.97
2023-07-25T01:33:53.019Z,21.93
2023-07-25T01:36:21.953Z,21.92
2023-07-25T01:38:50.825Z,21.95
2023-07-25T01:41:19.648Z,21.83
2023-07-25T01:43:49.957Z,21.67
2023-07-25T01:46:18.940Z,21.60
2023-07-25T01:48:47.969Z,21.52
2023-07-25T01:51:16.818Z,21.42
2023-07-25T01:53:45.748Z,21.41
2023-07-25T01:56:14.588Z,21.25
2023-07-25T01:58:43.601Z,21.19
2023-07-25T02:01:14.253Z,21.19
2023-07-25T02:03:43.317Z,21.20
2023-07-25T02:06:12.208Z,21.10
2023-07-25T02:08:41.676Z,21.06
2023-07-25T02:11:10.580Z,21.01
2023-07-25T02:13:39.405Z,21.00
2023-07-25T02:16:08.365Z,21.11
2023-07-25T02:18:38.611Z,21.21
2023-07-25T02:21:07.766Z,21.21
2023-07-25T02:23:36.605Z,21.30
2023-07-25T02:26:05.580Z,21.26
2023-07-25T02:28:34.425Z,21.21
2023-07-25T02:31:03.440Z,21.17
2023-07-25T02:33:32.339Z,21.21
2023-07-25T02:36:02.607Z,21.28
2023-07-25T02:38:32.015Z,21.37
2023-07-25T02:41:00.886Z,21.30
2023-07-25T02:43:29.853Z,21.20
2023-07-25T02:45:58.736Z,21.21
2023-07-25T02:48:27.773Z,21.20
2023-07-25T02:50:56.811Z,21.18
2023-07-25T02:53:27.295Z,21.05
2023-07-25T02:55:56.386Z,20.93
2023-07-25T02:58:25.799Z,20.93
2023-07-25T03:00:54.874Z,20.86
2023-07-25T03:03:23.723Z,20.79
2023-07-25T03:05:52.812Z,20.76
2023-07-25T03:08:22.005Z,20.69
2023-07-25T03:10:52.172Z,20.69
2023-07-25T03:13:21.213Z,20.68
2023-07-25T03:15:50.269Z,20.57
2023-07-25T03:18:19.085Z,20.52
2023-07-25T03:20:47.963Z,20.49
2023-07-25T03:23:16.920Z,20.47
2023-07-25T03:25:45.638Z,20.37
2023-07-25T03:28:15.894Z,20.31
2023-07-25T03:30:44.741Z,20.24
2023-07-25T03:33:13.513Z,20.22
2023-07-25T03:35:42.787Z,20.15
2023-07-25T03:38:11.613Z,20.04
2023-07-25T03:40:40.412Z,20.00
2023-07-25T03:43:09.191Z,19.97
2023-07-25T03:45:39.604Z,19.92
2023-07-25T03:48:08.534Z,19.87
2023-07-25T03:50:37.471Z,19.88
2023-07-25T03:53:07.525Z,19.88
2023-07-25T03:55:36.474Z,20.01
2023-07-25T03:58:05.325Z,20.04
2023-07-25T04:00:34.470Z,20.06
2023-07-25T04:03:14.466Z,20.12
2023-07-25T04:05:45.232Z,20.19
2023-07-25T04:08:14.123Z,20.32
2023-07-25T04:10:43.016Z,20.38
2023-07-25T04:13:11.926Z,20.50
2023-07-25T04:15:40.749Z,20.64
2023-07-25T04:18:10.976Z,20.76
2023-07-25T04:20:39.955Z,20.85
2023-07-25T04:23:08.885Z,20.95
2023-07-25T04:25:37.804Z,21.09
2023-07-25T04:28:06.926Z,21.25
2023-07-25T04:30:35.917Z,21.34
2023-07-25T04:33:04.748Z,21.42
2023-07-25T04:35:35.196Z,21.49
2023-07-25T04:38:04.034Z,21.50
2023-07-25T04:40:33.256Z,21.49
2023-07-25T04:43:02.177Z,21.48
2023-07-25T04:45:30.998Z,21.52
2023-07-25T04:47:59.972Z,21.54
2023-07-25T04:50:29.024Z,21.60
2023-07-25T04:52:59.327Z,21.67
2023-07-25T04:55:28.229Z,21.77
2023-07-25T04:57:57.194Z,21.94
2023-07-25T05:00:27.390Z,22.07
2023-07-25T05:02:57.630Z,22.24
2023-07-25T05:05:26.790Z,22.35
2023-07-25T05:07:55.636Z,22.43
2023-07-25T05:10:26.205Z,22.52
2023-07-25T05:12:55.222Z,22.56
2023-07-25T05:15:24.236Z,22.60
2023-07-25T05:17:53.382Z,22.70
2023-07-25T05:20:22.202Z,22.68
2023-07-25T05:22:51.225Z,22.80
2023-07-25T05:25:19.972Z,22.84
2023-07-25T05:27:50.284Z,22.93
2023-07-25T05:30:19.288Z,23.00
2023-07-25T05:32:48.193Z,22.92
2023-07-25T05:35:17.417Z,22.97
2023-07-25T05:37:46.156Z,22.97
2023-07-25T05:40:15.204Z,23.00
2023-07-25T05:42:44.045Z,23.03
2023-07-25T05:45:15.403Z,23.16
2023-07-25T05:47:44.384Z,23.33
2023-07-25T05:50:14.898Z,23.40
2023-07-25T05:52:43.845Z,23.34
2023-07-25T05:55:12.610Z,23.39
2023-07-25T05:57:41.404Z,23.50
2023-07-25T06:00:11.134Z,23.50
2023-07-25T06:02:41.567Z,23.55
2023-07-25T06:05:10.954Z,23.68
2023-07-25T06:07:39.717Z,23.83
2023-07-25T06:10:09.678Z,23.96
2023-07-25T06:12:38.723Z,24.04
2023-07-25T06:15:08.572Z,24.21
2023-07-25T06:17:37.419Z,24.29
2023-07-25T06:20:09.088Z,24.33
2023-07-25T06:22:38.785Z,24.43
2023-07-25T06:25:09.999Z,24.44
2023-07-25T06:27:38.884Z,24.57
2023-07-25T06:30:08.963Z,24.64
2023-07-25T06:32:39.168Z,24.69
2023-07-25T06:35:10.384Z,24.62
2023-07-25T06:37:40.736Z,24.59
2023-07-25T06:40:10.446Z,24.60
2023-07-25T06:42:39.224Z,24.77
2023-07-25T06:45:09.964Z,24.91
2023-07-25T06:47:39.248Z,25.06
2023-07-25T06:50:10.329Z,25.09
2023-07-25T06:52:39.182Z,25.17
2023-07-25T06:55:08.911Z,25.18
2023-07-25T06:57:37.771Z,25.23
2023-07-25T07:00:09.318Z,25.30
2023-07-25T07:02:38.249Z,25.37
2023-07-25T07:05:23.760Z,25.37
2023-07-25T07:07:57.612Z,25.36
2023-07-25T07:10:26.591Z,25.27
2023-07-25T07:12:55.486Z,25.21
2023-07-25T07:15:25.841Z,25.21
2023-07-25T07:17:55.123Z,25.19
2023-07-25T07:20:24.350Z,25.21
2023-07-25T07:22:52.895Z,25.18
2023-07-25T07:25:23.083Z,25.16
2023-07-25T07:27:51.856Z,25.14
2023-07-25T07:30:20.669Z,25.10
2023-07-25T07:32:49.600Z,25.04
2023-07-25T07:35:18.511Z,25.03
2023-07-25T07:37:47.380Z,24.98
2023-07-25T07:40:16.167Z,24.98
2023-07-25T07:42:46.371Z,24.88
2023-07-25T07:45:15.500Z,24.81
2023-07-25T07:47:44.222Z,24.82
2023-07-25T07:50:14.829Z,24.85
2023-07-25T07:52:45.211Z,24.81
2023-07-25T07:55:14.951Z,24.81
2023-07-25T07:57:46.693Z,24.77
2023-07-25T08:00:17.360Z,24.74
2023-07-25T08:02:48.495Z,24.78
2023-07-25T08:05:17.438Z,24.76
2023-07-25T08:07:46.173Z,24.76
2023-07-25T08:10:15.180Z,24.74
2023-07-25T08:12:45.478Z,24.74
2023-07-25T08:15:14.494Z,24.72
2023-07-25T08:17:43.317Z,24.66
2023-07-25T08:20:14.764Z,24.62
2023-07-25T08:22:43.625Z,24.60
2023-07-25T08:25:12.852Z,24.58
2023-07-25T08:27:41.383Z,24.53
2023-07-25T08:30:12.860Z,24.46
2023-07-25T08:32:41.714Z,24.31
2023-07-25T08:35:10.694Z,24.20
2023-07-25T08:37:39.587Z,24.11
2023-07-25T08:40:09.636Z,23.90
2023-07-25T08:42:43.239Z,23.75
2023-07-25T08:45:14.173Z,23.62
2023-07-25T08:47:45.238Z,23.45
2023-07-25T08:50:17.901Z,23.37
2023-07-25T08:52:51.426Z,23.22
2023-07-25T08:55:20.420Z,23.16
2023-07-25T08:57:52.569Z,23.04
2023-07-25T09:00:24.040Z,22.98
2023-07-25T09:02:54.346Z,22.92
2023-07-25T09:05:25.538Z,22.84
2023-07-25T09:08:00.521Z,22.72
2023-07-25T09:10:30.398Z,22.55
2023-07-25T09:12:59.148Z,22.37
2023-07-25T09:15:29.948Z,22.21
2023-07-25T09:17:58.781Z,22.10
2023-07-25T09:20:27.732Z,22.06
2023-07-25T09:22:58.800Z,22.05
2023-07-25T09:25:28.608Z,21.97
2023-07-25T09:27:57.264Z,21.88
2023-07-25T09:30:30.414Z,21.78
2023-07-25T09:32:59.267Z,21.65
2023-07-25T09:35:28.029Z,21.48
2023-07-25T09:37:57.767Z,21.36
2023-07-25T09:40:27.695Z,21.25
2023-07-25T09:42:57.358Z,21.15
2023-07-25T09:45:26.109Z,21.10
2023-07-25T09:47:56.373Z,21.05
2023-07-25T09:50:28.093Z,21.02
2023-07-25T09:52:56.951Z,20.95
2023-07-25T09:55:25.989Z,20.91
2023-07-25T09:57:56.055Z,20.85
2023-07-25T10:00:25.648Z,20.78
2023-07-25T10:02:56.829Z,20.77
2023-07-25T10:05:26.097Z,20.80
2023-07-25T10:07:56.957Z,20.91
2023-07-25T10:10:27.927Z,21.03
2023-07-25T10:12:57.132Z,21.11
2023-07-25T10:15:26.371Z,21.15
2023-07-25T10:18:04.848Z,21.22
2023-07-25T10:20:33.689Z,21.21
2023-07-25T10:23:13.247Z,21.18
2023-07-25T10:25:42.466Z,21.13
2023-07-25T10:28:11.602Z,21.05
2023-07-25T10:30:45.550Z,21.14
2023-07-25T10:33:18.377Z,21.35
2023-07-25T10:35:51.745Z,21.40
2023-07-25T10:38:26.206Z,21.42
2023-07-25T10:40:57.947Z,21.51
2023-07-25T10:43:30.470Z,21.52
2023-07-25T10:46:02.875Z,21.57
2023-07-25T10:48:44.972Z,21.64
2023-07-25T10:51:17.177Z,21.82
2023-07-25T10:54:11.661Z,21.95
2023-07-25T10:56:41.298Z,21.95
2023-07-25T10:59:10.667Z,21.96
2023-07-25T11:01:40.724Z,22.03
2023-07-25T11:04:29.710Z,22.08
2023-07-25T11:07:00.380Z,22.23
2023-07-25T11:09:29.658Z,22.42
2023-07-25T11:11:58.413Z,22.55
2023-07-25T11:14:27.261Z,22.64
2023-07-25T11:16:56.837Z,22.68
2023-07-25T11:19:30.385Z,22.64
2023-07-25T11:21:59.269Z,22.71
2023-07-25T11:24:28.008Z,22.74
2023-07-25T11:26:56.904Z,22.66
2023-07-25T11:29:25.720Z,22.51
2023-07-25T11:31:54.519Z,22.38
2023-07-25T11:34:23.484Z,22.39
2023-07-25T11:36:54.219Z,22.48
2023-07-25T11:39:24.893Z,22.43
2023-07-25T11:41:53.674Z,22.47
2023-07-25T11:44:22.793Z,22.53
2023-07-25T11:46:55.564Z,22.58
2023-07-25T11:49:45.616Z,22.62
2023-07-25T11:52:16.040Z,22.71
2023-07-25T11:54:45.136Z,22.81
2023-07-25T11:57:13.978Z,23.01
2023-07-25T11:59:42.814Z,23.07
2023-07-25T12:02:14.008Z,23.18
2023-07-25T12:04:46.251Z,23.14
2023-07-25T12:07:17.506Z,23.15
2023-07-25T12:09:54.308Z,23.09
2023-07-25T12:12:23.625Z,23.08
2023-07-25T12:14:57.002Z,23.09
2023-07-25T12:17:42.484Z,23.11
2023-07-25T12:20:22.262Z,23.09
2023-07-25T12:23:07.537Z,23.10
2023-07-25T12:25:38.930Z,23.14
2023-07-25T12:28:08.019Z,23.24
2023-07-25T12:30:36.785Z,23.31
2023-07-25T12:33:08.728Z,23.25
2023-07-25T12:35:37.633Z,23.23
2023-07-25T12:38:07.828Z,23.28
2023-07-25T12:40:36.803Z,23.36
2023-07-25T12:43:05.705Z,23.40
2023-07-25T12:45:34.574Z,23.43
2023-07-25T12:48:04.459Z,23.46
2023-07-25T12:50:33.895Z,23.50
2023-07-25T12:53:02.790Z,23.50
2023-07-25T12:55:33.629Z,23.37
2023-07-25T12:58:04.237Z,23.21
2023-07-25T13:00:33.141Z,23.10
2023-07-25T13:03:02.228Z,23.02
2023-07-25T13:05:31.179Z,23.01
2023-07-25T13:08:00.055Z,22.97
2023-07-25T13:10:30.049Z,22.95
2023-07-25T13:13:00.852Z,22.95
2023-07-25T13:15:29.738Z,22.95
2023-07-25T13:17:58.584Z,22.90
2023-07-25T13:20:28.299Z,22.85
2023-07-25T13:22:57.145Z,22.81
2023-07-25T13:25:26.025Z,22.80
2023-07-25T13:27:54.904Z,22.75
2023-07-25T13:30:25.156Z,22.72
2023-07-25T13:32:54.295Z,22.74
2023-07-25T13:35:23.284Z,22.68
2023-07-25T13:37:52.171Z,22.68
2023-07-25T13:40:21.053Z,22.67
2023-07-25T13:42:50.417Z,22.72
2023-07-25T13:45:19.207Z,22.66
2023-07-25T13:47:49.441Z,22.54
2023-07-25T13:50:18.581Z,22.39
2023-07-25T13:52:47.485Z,22.35
2023-07-25T13:55:16.225Z,22.30
2023-07-25T13:57:52.539Z,22.27
2023-07-25T14:00:21.626Z,22.19
2023-07-25T14:02:51.902Z,22.15
2023-07-25T14:05:20.882Z,22.00
2023-07-25T14:07:49.619Z,21.94
2023-07-25T14:10:19.701Z,21.96
2023-07-25T14:12:49.279Z,21.92
2023-07-25T14:15:18.620Z,21.89
2023-07-25T14:17:48.926Z,21.74
2023-07-25T14:20:19.273Z,21.76
2023-07-25T14:22:48.344Z,21.76
2023-07-25T14:25:17.590Z,21.74
2023-07-25T14:27:46.854Z,21.76
2023-07-25T14:30:15.826Z,21.76
2023-07-25T14:32:44.819Z,21.77
2023-07-25T14:35:13.563Z,21.72
2023-07-25T14:37:56.126Z,21.69
2023-07-25T14:40:27.757Z,21.71
2023-07-25T14:42:56.882Z,21.65
2023-07-25T14:45:25.823Z,21.64
2023-07-25T14:47:55.823Z,21.56
2023-07-25T14:50:25.452Z,21.58
2023-07-25T14:52:55.579Z,21.62
2023-07-25T14:55:24.738Z,21.58
2023-07-25T14:57:53.563Z,21.61
2023-07-25T15:00:22.759Z,21.70
2023-07-25T15:02:51.560Z,21.84
2023-07-25T15:05:20.557Z,22.03
2023-07-25T15:07:49.340Z,22.16
2023-07-25T15:10:19.705Z,22.18
2023-07-25T15:12:48.905Z,22.23
2023-07-25T15:15:17.817Z,22.18
2023-07-25T15:17:46.592Z,22.26
2023-07-25T15:20:15.414Z,22.34
2023-07-25T15:22:44.136Z,22.47
2023-07-25T15:25:13.200Z,22.51
2023-07-25T15:27:43.308Z,22.67
2023-07-25T15:30:13.376Z,22.60
2023-07-25T15:32:42.467Z,22.72
2023-07-25T15:35:11.738Z,22.80
2023-07-25T15:37:40.875Z,22.90
2023-07-25T15:40:11.886Z,22.92
2023-07-25T15:42:40.847Z,22.96
2023-07-25T15:45:11.455Z,22.89
2023-07-25T15:47:40.813Z,22.90
2023-07-25T15:50:09.835Z,22.87
2023-07-25T15:52:39.394Z,22.68
2023-07-25T15:55:08.817Z,22.65
2023-07-25T15:57:37.214Z,22.73
2023-07-25T16:00:07.544Z,22.77
2023-07-25T16:02:38.873Z,22.70
2023-07-25T16:05:08.052Z,22.69
2023-07-25T16:07:36.678Z,22.70
2023-07-25T16:10:06.616Z,22.71
2023-07-25T16:12:35.979Z,22.73
2023-07-25T16:15:05.465Z,22.72
2023-07-25T16:17:34.622Z,22.65
2023-07-25T16:20:05.409Z,22.58
2023-07-25T16:22:34.278Z,22.54
2023-07-25T16:25:03.162Z,22.54
2023-07-25T16:27:32.863Z,22.51
2023-07-25T16:30:02.200Z,22.48
2023-07-25T16:32:31.560Z,22.46
2023-07-25T16:35:01.855Z,22.42
2023-07-25T16:37:32.265Z,22.40
2023-07-25T16:40:01.199Z,22.31
2023-07-25T16:42:30.751Z,22.26
2023-07-25T16:44:59.731Z,22.27
2023-07-25T16:47:28.655Z,22.25
2023-07-25T16:49:57.908Z,22.22
2023-07-25T16:52:28.326Z,22.19
2023-07-25T16:54:58.806Z,22.17
2023-07-25T16:57:27.730Z,22.11
2023-07-25T16:59:58.255Z,22.08
2023-07-25T17:02:27.697Z,22.06
2023-07-25T17:04:59.235Z,22.00
2023-07-25T17:07:29.496Z,21.90
2023-07-25T17:10:01.100Z,21.89
2023-07-25T17:12:30.583Z,21.87
2023-07-25T17:14:59.316Z,21.85
2023-07-25T17:17:29.659Z,21.73
2023-07-25T17:19:59.129Z,21.66
2023-07-25T17:22:29.925Z,21.63
2023-07-25T17:25:02.649Z,21.47
2023-07-25T17:27:31.785Z,21.45
2023-07-25T17:30:01.481Z,21.47
2023-07-25T17:32:31.186Z,21.41
2023-07-25T17:35:00.528Z,21.39
2023-07-25T17:37:30.003Z,21.35
2023-07-25T17:39:58.992Z,21.31
2023-07-25T17:42:31.354Z,21.17
2023-07-25T17:45:00.942Z,21.10
2023-07-25T17:47:32.348Z,21.10
2023-07-25T17:50:03.484Z,21.11
2023-07-25T17:52:33.165Z,21.10
2023-07-25T17:55:02.055Z,21.04
2023-07-25T17:57:33.058Z,20.95
2023-07-25T18:00:04.600Z,20.80
2023-07-25T18:02:42.688Z,20.63
2023-07-25T18:05:11.737Z,20.60
2023-07-25T18:07:42.526Z,20.58
2023-07-25T18:10:15.776Z,20.51
2023-07-25T18:12:47.853Z,20.50
2023-07-25T18:15:17.369Z,20.42
2023-07-25T18:17:46.798Z,20.40
2023-07-25T18:20:18.302Z,20.41
2023-07-25T18:22:48.980Z,20.33
2023-07-25T18:25:18.955Z,20.25
2023-07-25T18:27:52.469Z,20.11
2023-07-25T18:30:21.983Z,20.08
2023-07-25T18:32:56.803Z,20.00
2023-07-25T18:35:27.076Z,19.93
2023-07-25T18:38:00.752Z,20.00
2023-07-25T18:40:30.578Z,19.94
2023-07-25T18:43:01.405Z,19.94
2023-07-25T18:45:31.375Z,19.90
2023-07-25T18:48:00.306Z,19.86
2023-07-25T18:50:32.836Z,19.81
2023-07-25T18:53:03.763Z,19.71
2023-07-25T18:55:33.226Z,19.73
2023-07-25T18:58:03.847Z,19.71
2023-07-25T19:00:33.992Z,19.65
2023-07-25T19:03:05.354Z,19.61
2023-07-25T19:05:38.127Z,19.59
2023-07-25T19:08:07.347Z,19.59
2023-07-25T19:10:37.174Z,19.55
2023-07-25T19:13:11.029Z,19.45
2023-07-25T19:15:41.320Z,19.45
2023-07-25T19:18:11.976Z,19.51
2023-07-25T19:20:41.932Z,19.52
2023-07-25T19:23:24.813Z,19.46
2023-07-25T19:26:01.351Z,19.45
2023-07-25T19:28:34.031Z,19.46
2023-07-25T19:31:09.141Z,19.42
2023-07-25T19:33:39.099Z,19.42
2023-07-25T19:36:09.151Z,19.47
2023-07-25T19:38:41.122Z,19.49
2023-07-25T19:41:16.919Z,19.48
2023-07-25T19:43:48.132Z,19.56
2023-07-25T19:46:19.940Z,19.58
2023-07-25T19:48:50.230Z,19.62
2023-07-25T19:51:20.139Z,19.67
2023-07-25T19:53:52.029Z,19.67
2023-07-25T19:56:22.599Z,19.62
2023-07-25T19:58:53.382Z,19.62
2023-07-25T20:01:23.075Z,19.58
2023-07-25T20:03:53.699Z,19.51
2023-07-25T20:06:24.445Z,19.40
2023-07-25T20:08:53.730Z,19.47
2023-07-25T20:11:23.021Z,19.55
2023-07-25T20:13:54.318Z,19.56
2023-07-25T20:16:24.090Z,19.50
2023-07-25T20:18:53.484Z,19.50
2023-07-25T20:21:26.846Z,19.43
2023-07-25T20:23:57.024Z,19.44
2023-07-25T20:26:26.596Z,19.44
2023-07-25T20:28:57.534Z,19.40
2023-07-25T20:31:28.103Z,19.24
2023-07-25T20:34:01.326Z,19.18
2023-07-25T20:36:32.131Z,19.08
2023-07-25T20:39:02.124Z,18.92
2023-07-25T20:41:31.241Z,18.94
2023-07-25T20:44:01.644Z,19.00
2023-07-25T20:46:31.282Z,18.99
2023-07-25T20:49:00.608Z,18.95
2023-07-25T20:51:30.412Z,18.93
2023-07-25T20:53:59.440Z,18.91
2023-07-25T20:56:30.923Z,18.94
2023-07-25T20:59:01.733Z,18.96
2023-07-25T21:01:31.567Z,19.00
2023-07-25T21:04:00.555Z,19.08
2023-07-25T21:06:30.790Z,19.04
2023-07-25T21:09:02.073Z,18.91
2023-07-25T21:11:31.061Z,18.91
2023-07-25T21:13:59.899Z,18.93
2023-07-25T21:16:31.084Z,18.97
2023-07-25T21:19:00.164Z,19.00
2023-07-25T21:21:29.090Z,19.05
2023-07-25T21:23:57.942Z,19.07
2023-07-25T21:26:26.828Z,19.11
2023-07-25T21:28:55.669Z,19.16
2023-07-25T21:31:24.463Z,19.16
2023-07-25T21:33:58.469Z,19.09
2023-07-25T21:36:28.059Z,19.05
2023-07-25T21:38:57.201Z,19.08
2023-07-25T21:41:26.147Z,19.13
2023-07-25T21:43:54.925Z,19.25
2023-07-25T21:46:23.808Z,19.28
2023-07-25T21:48:52.651Z,19.31
2023-07-25T21:51:22.961Z,19.32
2023-07-25T21:53:51.937Z,19.29
2023-07-25T21:56:20.774Z,19.35
2023-07-25T21:58:49.727Z,19.39
2023-07-25T22:01:18.566Z,19.42
2023-07-25T22:03:47.775Z,19.42
2023-07-25T22:06:16.563Z,19.42
2023-07-25T22:08:46.777Z,19.47
2023-07-25T22:11:15.659Z,19.46
2023-07-25T22:13:44.503Z,19.44
2023-07-25T22:16:13.594Z,19.42
2023-07-25T22:18:44.582Z,19.37
2023-07-25T22:21:13.783Z,19.35
2023-07-25T22:23:42.652Z,19.35
2023-07-25T22:26:14.207Z,19.35
2023-07-25T22:28:43.165Z,19.31
2023-07-25T22:31:12.014Z,19.27
2023-07-25T22:33:40.914Z,19.31
2023-07-25T22:36:09.715Z,19.28
2023-07-25T22:38:38.565Z,19.30
2023-07-25T22:41:08.289Z,19.24
2023-07-25T22:43:38.892Z,19.21
2023-07-25T22:46:08.587Z,19.24
2023-07-25T22:48:37.423Z,19.28
2023-07-25T22:51:06.258Z,19.35
2023-07-25T22:53:35.056Z,19.38
2023-07-25T22:56:04.182Z,19.41
2023-07-25T22:58:33.004Z,19.36
2023-07-25T23:01:05.673Z,19.22
2023-07-25T23:03:36.304Z,19.23
2023-07-25T23:06:05.350Z,19.23
2023-07-25T23:08:34.153Z,19.23
2023-07-25T23:11:03.623Z,19.25
2023-07-25T23:13:32.367Z,19.27
2023-07-25T23:16:02.897Z,19.31
2023-07-25T23:18:31.881Z,19.23
2023-07-25T23:21:00.848Z,19.15
2023-07-25T23:23:30.255Z,19.08
2023-07-25T23:25:59.088Z,19.09
2023-07-25T23:28:28.727Z,19.12
2023-07-25T23:30:57.601Z,19.12
2023-07-25T23:33:29.303Z,19.16
2023-07-25T23:35:58.520Z,19.13
2023-07-25T23:38:27.523Z,19.13
2023-07-25T23:40:56.438Z,19.18
2023-07-25T23:43:25.247Z,19.18
2023-07-25T23:45:54.489Z,19.16
2023-07-25T23:48:23.318Z,19.13
2023-07-25T23:50:53.708Z,19.13
2023-07-25T23:53:22.557Z,19.13
2023-07-25T23:55:51.364Z,19.15
2023-07-25T23:58:20.260Z,19.19
